Time;durP1;ratioP1;P1;durP2;ratioP2;P2;SDS_P1;SDS_P2;PMS_P1;PMS_P2;Temp;Humidity;BMP_temperature;BMP_pressure;BME280_temperature;BME280_humidity;BME280_pressure;Samples;Min_cycle;Max_cycle;Signal;HPM_P1;HPM_P2
2023/07/23 00:00:31;;;;;;;5.57;3.70;;;18.90;99.90;;;;;;5076284;28;20020;-77
2023/07/23 00:02:57;;;;;;;5.13;3.70;;;18.80;99.90;;;;;;5076351;28;20476;-78
2023/07/23 00:05:24;;;;;;;3.97;3.10;;;18.80;99.90;;;;;;5076237;28;20013;-77
2023/07/23 00:07:51;;;;;;;6.50;4.47;;;18.60;99.90;;;;;;5076221;28;20057;-78
2023/07/23 00:10:17;;;;;;;4.30;3.55;;;18.70;99.90;;;;;;5076188;28;20024;-77
2023/07/23 00:12:42;;;;;;;6.00;3.45;;;18.70;99.90;;;;;;5075793;28;20028;-77
2023/07/23 00:15:08;;;;;;;4.05;2.92;;;18.60;99.90;;;;;;5076242;28;20023;-77
2023/07/23 00:17:34;;;;;;;7.40;3.55;;;18.60;99.90;;;;;;5076099;28;20040;-77
2023/07/23 00:19:59;;;;;;;5.00;4.03;;;18.60;99.90;;;;;;5074572;28;20024;-77
2023/07/23 00:22:25;;;;;;;5.68;3.38;;;18.60;99.90;;;;;;5075802;28;20485;-78
2023/07/23 00:24:56;;;;;;;7.78;3.70;;;18.60;99.90;;;;;;5075740;28;20554;-77
2023/07/23 00:27:25;;;;;;;9.52;3.70;;;18.50;99.90;;;;;;5075679;28;20493;-77
2023/07/23 00:29:51;;;;;;;6.03;4.10;;;18.50;99.90;;;;;;5075844;28;20024;-78
2023/07/23 00:32:16;;;;;;;5.97;4.03;;;18.50;99.90;;;;;;5075922;28;20032;-78
2023/07/23 00:34:42;;;;;;;5.53;3.97;;;18.50;99.90;;;;;;5075797;28;20052;-77
2023/07/23 00:37:09;;;;;;;4.43;3.47;;;18.50;99.90;;;;;;5075743;28;20029;-78
2023/07/23 00:39:34;;;;;;;5.15;3.85;;;18.40;99.90;;;;;;5075812;28;20027;-78
2023/07/23 00:42:00;;;;;;;6.45;4.35;;;18.40;99.90;;;;;;5075346;28;20099;-77
2023/07/23 00:44:26;;;;;;;6.88;4.43;;;18.30;99.90;;;;;;5074334;28;20092;-77
2023/07/23 00:46:53;;;;;;;5.97;4.00;;;18.30;99.90;;;;;;5076033;28;20103;-77
2023/07/23 00:49:19;;;;;;;5.65;3.55;;;18.30;99.90;;;;;;5075528;28;20089;-78
2023/07/23 00:51:46;;;;;;;6.25;3.60;;;18.30;99.90;;;;;;5075819;28;20036;-77
2023/07/23 00:54:13;;;;;;;6.35;3.60;;;18.30;99.90;;;;;;5075567;28;20020;-80
2023/07/23 00:56:40;;;;;;;4.32;3.83;;;18.20;99.90;;;;;;5075447;28;20035;-80
2023/07/23 00:59:07;;;;;;;5.10;3.78;;;18.20;99.90;;;;;;5069521;28;20384;-78
2023/07/23 01:01:33;;;;;;;5.07;3.65;;;18.20;99.90;;;;;;5075533;28;20032;-78
2023/07/23 01:03:58;;;;;;;5.93;3.55;;;18.10;99.90;;;;;;5072922;28;20081;-77
2023/07/23 01:06:27;;;;;;;4.68;3.35;;;18.20;99.90;;;;;;5078699;28;20396;-77
2023/07/23 01:08:56;;;;;;;5.80;3.35;;;18.20;99.90;;;;;;5070258;28;20024;-77
2023/07/23 01:11:23;;;;;;;5.47;3.22;;;18.20;99.90;;;;;;5075327;28;20024;-80
2023/07/23 01:13:51;;;;;;;4.95;3.72;;;18.10;99.90;;;;;;5075439;28;20025;-80
2023/07/23 01:16:18;;;;;;;5.55;3.60;;;18.10;99.90;;;;;;5074268;28;20082;-79
2023/07/23 01:18:43;;;;;;;5.13;3.78;;;18.10;99.90;;;;;;5075463;28;20029;-79
2023/07/23 01:21:10;;;;;;;6.68;4.15;;;18.20;99.90;;;;;;5074943;28;20098;-79
2023/07/23 01:23:36;;;;;;;4.60;3.90;;;18.10;99.90;;;;;;5075526;28;20020;-79
2023/07/23 01:26:03;;;;;;;4.55;3.17;;;18.10;99.90;;;;;;5075097;28;20029;-79
2023/07/23 01:28:29;;;;;;;5.00;3.35;;;18.10;99.90;;;;;;5074152;28;20066;-79
2023/07/23 01:30:55;;;;;;;5.15;3.80;;;18.00;99.90;;;;;;5074000;28;20032;-80
2023/07/23 01:33:24;;;;;;;5.88;4.20;;;18.00;99.90;;;;;;5074105;28;20021;-80
2023/07/23 01:35:53;;;;;;;5.35;3.78;;;18.00;99.90;;;;;;5073988;28;20024;-80
2023/07/23 01:38:19;;;;;;;4.88;3.50;;;18.00;99.90;;;;;;5075164;28;20017;-80
2023/07/23 01:40:45;;;;;;;6.22;3.75;;;17.90;99.90;;;;;;5075055;28;20067;-80
2023/07/23 01:43:12;;;;;;;7.28;3.80;;;17.90;99.90;;;;;;5074809;28;20468;-80
2023/07/23 01:45:41;;;;;;;5.72;3.80;;;17.90;99.90;;;;;;5075112;28;20032;-80
2023/07/23 01:48:07;;;;;;;6.88;3.80;;;17.80;99.90;;;;;;5075011;28;20052;-79
2023/07/23 01:50:33;;;;;;;8.32;4.43;;;17.80;99.90;;;;;;5075068;28;20028;-79
2023/07/23 01:52:58;;;;;;;5.18;3.22;;;17.80;99.90;;;;;;5073641;28;20025;-79
2023/07/23 01:55:24;;;;;;;4.90;3.83;;;17.70;99.90;;;;;;5074981;28;20028;-79
2023/07/23 01:57:50;;;;;;;6.50;4.43;;;17.70;99.90;;;;;;5074566;28;20020;-80
2023/07/23 02:00:16;;;;;;;4.70;3.55;;;17.70;99.90;;;;;;5074986;28;20115;-80
2023/07/23 02:02:41;;;;;;;6.35;3.70;;;17.60;99.90;;;;;;5073512;28;20047;-80
2023/07/23 02:05:07;;;;;;;6.32;3.42;;;17.60;99.90;;;;;;5074970;28;20130;-80
2023/07/23 02:07:33;;;;;;;5.85;3.78;;;17.60;99.90;;;;;;5073517;28;20020;-80
2023/07/23 02:09:58;;;;;;;6.97;4.13;;;17.60;99.90;;;;;;5074825;28;20032;-80
2023/07/23 02:12:24;;;;;;;5.25;4.13;;;17.50;99.90;;;;;;5074616;28;20028;-79
2023/07/23 02:14:50;;;;;;;5.93;3.78;;;17.50;99.90;;;;;;5074832;28;20024;-80
2023/07/23 02:17:15;;;;;;;4.95;4.45;;;17.50;99.90;;;;;;5074903;28;20021;-80
2023/07/23 02:19:41;;;;;;;6.60;3.80;;;17.40;99.90;;;;;;5076871;28;20070;-80
2023/07/23 02:22:07;;;;;;;5.53;3.67;;;17.40;99.90;;;;;;5077961;28;20044;-80
2023/07/23 02:24:32;;;;;;;4.65;3.97;;;17.40;99.90;;;;;;5078242;28;20051;-80
2023/07/23 02:26:58;;;;;;;5.90;3.70;;;17.40;99.90;;;;;;5077975;28;20028;-80
2023/07/23 02:29:23;;;;;;;5.40;3.92;;;17.30;99.90;;;;;;5078346;28;20563;-80
2023/07/23 02:31:49;;;;;;;5.40;3.72;;;17.30;99.90;;;;;;5078189;28;20060;-80
2023/07/23 02:34:15;;;;;;;6.55;4.28;;;17.30;99.90;;;;;;5077995;28;20504;-81
2023/07/23 02:36:40;;;;;;;5.68;3.95;;;17.20;99.90;;;;;;5078188;28;20025;-80
2023/07/23 02:39:06;;;;;;;5.32;4.03;;;17.20;99.90;;;;;;5078107;28;20032;-80
2023/07/23 02:41:32;;;;;;;5.95;4.03;;;17.20;99.90;;;;;;5076507;28;20032;-80
2023/07/23 02:43:57;;;;;;;9.48;4.05;;;17.20;99.90;;;;;;5077927;28;20031;-79
2023/07/23 02:46:23;;;;;;;6.70;4.00;;;17.20;99.90;;;;;;5078041;28;20036;-79
2023/07/23 02:48:49;;;;;;;5.18;4.03;;;17.10;99.90;;;;;;5078060;28;20036;-79
2023/07/23 02:51:14;;;;;;;5.32;3.92;;;17.10;99.90;;;;;;5077983;28;20028;-79
2023/07/23 02:53:40;;;;;;;5.13;3.80;;;17.10;99.90;;;;;;5077964;28;20060;-80
2023/07/23 02:56:06;;;;;;;5.88;3.83;;;17.10;99.90;;;;;;5076245;28;20145;-80
2023/07/23 02:58:31;;;;;;;5.10;4.15;;;17.10;99.90;;;;;;5076375;28;20089;-80
2023/07/23 03:00:57;;;;;;;5.85;3.78;;;17.10;99.90;;;;;;5077393;28;20043;-80
2023/07/23 03:03:23;;;;;;;5.05;3.97;;;17.00;99.90;;;;;;5077608;28;20024;-80
2023/07/23 03:05:49;;;;;;;5.93;4.25;;;17.00;99.90;;;;;;5076893;28;20039;-80
2023/07/23 03:08:15;;;;;;;6.97;3.80;;;17.00;99.90;;;;;;5077408;28;20108;-80
2023/07/23 03:10:42;;;;;;;4.35;3.60;;;17.00;99.90;;;;;;5077485;28;20067;-80
2023/07/23 03:13:08;;;;;;;5.28;3.80;;;16.90;99.90;;;;;;5076989;28;20024;-80
2023/07/23 03:15:34;;;;;;;6.15;4.20;;;16.90;99.90;;;;;;5077207;28;20390;-80
2023/07/23 03:18:00;;;;;;;8.55;4.35;;;16.80;99.90;;;;;;5077325;28;20024;-80
2023/07/23 03:20:27;;;;;;;6.30;3.97;;;16.80;99.90;;;;;;5075802;28;20024;-80
2023/07/23 03:22:52;;;;;;;5.15;4.40;;;16.80;99.90;;;;;;5092471;28;20072;-79
2023/07/23 03:25:18;;;;;;;6.88;3.90;;;16.80;99.90;;;;;;5075874;28;20024;-80
2023/07/23 03:27:44;;;;;;;5.45;3.75;;;16.70;99.90;;;;;;5075605;28;20021;-80
2023/07/23 03:30:11;;;;;;;5.53;4.20;;;16.80;99.90;;;;;;5075807;28;20025;-79
2023/07/23 03:32:37;;;;;;;5.55;4.55;;;16.70;99.90;;;;;;5077091;28;20020;-79
2023/07/23 03:35:03;;;;;;;5.32;4.07;;;16.70;99.90;;;;;;5077140;28;20032;-80
2023/07/23 03:37:28;;;;;;;4.35;3.60;;;16.60;99.90;;;;;;5075743;28;20044;-80
2023/07/23 03:39:54;;;;;;;5.13;3.97;;;16.60;99.90;;;;;;5075541;28;20171;-79
2023/07/23 03:42:20;;;;;;;7.80;4.30;;;16.60;99.90;;;;;;5076461;28;20074;-79
2023/07/23 03:44:46;;;;;;;6.28;4.50;;;16.60;99.90;;;;;;5076820;28;20173;-80
2023/07/23 03:47:19;;;;;;;5.07;3.90;;;16.60;99.90;;;;;;5075385;28;20024;-79
2023/07/23 03:49:46;;;;;;;5.55;4.10;;;16.50;99.90;;;;;;5077021;28;20020;-80
2023/07/23 03:52:13;;;;;;;6.40;4.20;;;16.50;99.90;;;;;;5076647;28;20024;-79
2023/07/23 03:54:38;;;;;;;5.47;4.50;;;16.50;99.90;;;;;;5076575;28;20486;-80
2023/07/23 03:57:05;;;;;;;7.35;4.38;;;16.50;99.90;;;;;;5074996;28;20087;-80
2023/07/23 03:59:35;;;;;;;7.30;4.38;;;16.40;99.90;;;;;;5076172;28;20496;-79
2023/07/23 04:02:01;;;;;;;;;;;16.40;99.90;;;;;;5076615;28;20174;-80
2023/07/23 04:04:27;;;;;;;5.85;4.63;;;16.40;99.90;;;;;;5075128;28;19958;-79
2023/07/23 04:06:52;;;;;;;6.53;4.72;;;16.40;99.90;;;;;;5076477;28;20023;-79
2023/07/23 04:09:19;;;;;;;5.43;4.22;;;16.30;99.90;;;;;;5076304;28;20032;-79
2023/07/23 04:11:45;;;;;;;7.22;4.50;;;16.40;99.90;;;;;;5076354;28;20024;-80
2023/07/23 04:14:10;;;;;;;6.65;4.93;;;16.30;99.90;;;;;;5074844;28;20021;-79
2023/07/23 04:16:36;;;;;;;6.88;4.68;;;16.30;99.90;;;;;;5076135;28;20074;-79
2023/07/23 04:19:01;;;;;;;8.63;4.68;;;16.30;99.90;;;;;;5076152;28;20064;-80
2023/07/23 04:21:27;;;;;;;6.05;4.78;;;16.30;99.90;;;;;;5075774;28;20059;-79
2023/07/23 04:23:57;;;;;;;6.15;4.70;;;16.30;99.90;;;;;;5076014;28;20025;-80
2023/07/23 04:26:26;;;;;;;5.03;4.53;;;16.30;99.90;;;;;;5074549;28;20085;-79
2023/07/23 04:28:52;;;;;;;6.22;4.35;;;16.30;99.90;;;;;;5075887;28;20515;-80
2023/07/23 04:31:18;;;;;;;6.95;4.97;;;16.30;99.90;;;;;;5074671;28;20040;-80
2023/07/23 04:33:44;;;;;;;6.10;4.70;;;16.30;99.90;;;;;;5075888;28;20032;-79
2023/07/23 04:36:12;;;;;;;7.47;4.97;;;16.30;99.90;;;;;;5074529;28;20642;-79
2023/07/23 04:38:38;;;;;;;7.03;5.28;;;16.30;99.90;;;;;;5075708;28;20059;-79
2023/07/23 04:41:04;;;;;;;6.38;4.93;;;16.30;99.90;;;;;;5075252;28;20381;-79
2023/07/23 04:43:30;;;;;;;6.43;5.28;;;16.30;99.90;;;;;;5074252;28;20094;-80
2023/07/23 04:45:55;;;;;;;7.80;5.47;;;16.30;99.90;;;;;;5075660;28;20017;-79
2023/07/23 04:48:21;;;;;;;5.63;5.03;;;16.40;99.90;;;;;;5075814;28;20031;-79
2023/07/23 04:51:12;;;;;;;8.27;5.05;;;16.40;99.90;;;;;;5075674;28;20021;-80
2023/07/23 04:53:38;;;;;;;7.05;5.03;;;16.30;99.90;;;;;;5070809;28;20036;-79
2023/07/23 04:56:05;;;;;;;5.95;4.72;;;16.30;99.90;;;;;;5075472;28;20396;-79
2023/07/23 04:58:31;;;;;;;8.38;5.82;;;16.40;99.90;;;;;;5075426;28;20036;-79
2023/07/23 05:01:00;;;;;;;5.20;4.50;;;16.40;99.90;;;;;;5075420;28;20484;-79
2023/07/23 05:03:26;;;;;;;5.50;4.70;;;16.40;99.90;;;;;;5075561;28;20023;-79
2023/07/23 05:05:53;;;;;;;7.10;4.40;;;16.40;99.90;;;;;;5075417;28;20488;-79
2023/07/23 05:08:19;;;;;;;7.55;4.80;;;16.50;99.90;;;;;;5075419;28;20128;-80
2023/07/23 05:10:46;;;;;;;6.43;4.72;;;16.50;99.90;;;;;;5075298;28;20035;-79
2023/07/23 05:13:13;;;;;;;7.82;4.97;;;16.50;99.90;;;;;;5075167;28;20097;-79
2023/07/23 05:15:38;;;;;;;6.68;4.68;;;16.50;99.90;;;;;;5075449;28;20029;-80
2023/07/23 05:18:04;;;;;;;5.93;4.30;;;16.60;99.90;;;;;;5073967;28;20115;-79
2023/07/23 05:20:30;;;;;;;6.15;4.65;;;16.60;99.90;;;;;;5075109;28;20024;-80
2023/07/23 05:22:55;;;;;;;5.82;4.60;;;16.70;99.90;;;;;;5075113;28;20098;-80
2023/07/23 05:25:21;;;;;;;6.40;5.05;;;16.90;99.90;;;;;;5075333;28;20028;-79
2023/07/23 05:27:49;;;;;;;7.38;4.97;;;16.90;99.90;;;;;;5075060;28;20095;-80
2023/07/23 05:30:16;;;;;;;7.13;4.97;;;17.00;99.90;;;;;;5075380;28;20020;-79
2023/07/23 05:32:42;;;;;;;5.90;4.78;;;17.00;99.90;;;;;;5075170;28;20552;-79
2023/07/23 05:35:08;;;;;;;5.93;4.90;;;17.10;99.90;;;;;;5075333;28;20016;-80
2023/07/23 05:37:33;;;;;;;9.40;5.05;;;17.10;99.90;;;;;;5075302;28;20435;-80
2023/07/23 05:39:59;;;;;;;6.03;4.45;;;17.20;99.90;;;;;;5075223;28;20029;-79
2023/07/23 05:42:25;;;;;;;6.80;5.15;;;17.20;99.90;;;;;;5074781;28;20480;-80
2023/07/23 05:44:50;;;;;;;6.55;5.05;;;17.30;99.90;;;;;;5076473;28;20024;-79
2023/07/23 05:47:16;;;;;;;6.78;4.57;;;17.40;99.90;;;;;;5078728;28;20510;-80
2023/07/23 05:49:41;;;;;;;10.73;4.55;;;17.50;99.90;;;;;;5078395;28;20104;-80
2023/07/23 05:52:07;;;;;;;4.82;4.35;;;17.50;99.90;;;;;;5076308;28;20519;-79
2023/07/23 05:54:33;;;;;;;5.82;4.63;;;17.60;99.90;;;;;;5077318;28;20032;-79
2023/07/23 05:56:59;;;;;;;4.78;4.22;;;17.70;99.90;;;;;;5077336;28;20031;-79
2023/07/23 05:59:25;;;;;;;8.57;4.40;;;17.80;99.90;;;;;;5077679;28;20099;-80
2023/07/23 06:01:51;;;;;;;6.40;4.43;;;17.90;99.90;;;;;;5078842;28;20103;-80
2023/07/23 06:04:17;;;;;;;7.35;4.03;;;18.10;99.90;;;;;;5077570;28;20017;-78
2023/07/23 06:06:43;;;;;;;6.60;4.78;;;18.20;99.90;;;;;;5078713;28;20021;-78
2023/07/23 06:09:09;;;;;;;6.88;4.22;;;18.30;99.90;;;;;;5078875;28;20027;-76
2023/07/23 06:11:35;;;;;;;10.40;4.75;;;18.40;99.90;;;;;;5078342;28;20059;-76
2023/07/23 06:14:02;;;;;;;6.70;4.22;;;18.50;99.90;;;;;;5078508;28;20032;-77
2023/07/23 06:16:27;;;;;;;6.47;4.78;;;18.60;99.90;;;;;;5078673;28;20033;-76
2023/07/23 06:18:53;;;;;;;5.97;4.75;;;18.60;99.90;;;;;;5077237;28;20028;-77
2023/07/23 06:21:18;;;;;;;5.25;4.65;;;18.70;99.90;;;;;;5076761;28;20133;-76
2023/07/23 06:23:44;;;;;;;5.72;4.78;;;18.80;99.90;;;;;;5078409;28;20106;-76
2023/07/23 06:26:10;;;;;;;8.98;4.43;;;18.90;99.90;;;;;;5078149;28;20028;-76
2023/07/23 06:28:35;;;;;;;6.60;4.93;;;19.00;99.90;;;;;;5078207;28;20027;-76
2023/07/23 06:31:01;;;;;;;8.88;5.05;;;19.10;99.90;;;;;;5076680;28;20036;-76
2023/07/23 06:33:27;;;;;;;11.38;5.38;;;19.30;99.90;;;;;;5078177;28;20051;-76
2023/07/23 06:35:53;;;;;;;5.63;4.38;;;19.40;99.90;;;;;;5078047;28;20024;-75
2023/07/23 06:38:19;;;;;;;7.57;4.97;;;19.60;99.90;;;;;;5078045;28;20488;-76
2023/07/23 06:40:51;;;;;;;8.73;4.75;;;19.70;99.90;;;;;;5077918;28;20020;-76
2023/07/23 06:43:17;;;;;;;5.35;4.43;;;19.80;99.90;;;;;;5077525;28;20029;-75
2023/07/23 06:45:47;;;;;;;6.50;5.18;;;20.00;99.90;;;;;;5077935;28;20070;-75
2023/07/23 06:48:14;;;;;;;6.68;5.03;;;20.10;99.90;;;;;;5077809;28;20033;-76
2023/07/23 06:50:40;;;;;;;9.32;4.50;;;20.20;99.90;;;;;;5077834;28;20039;-75
2023/07/23 06:53:06;;;;;;;8.35;5.82;;;20.20;99.90;;;;;;5077935;28;20032;-76
2023/07/23 06:55:55;;;;;;;6.65;4.50;;;20.30;99.90;;;;;;5077647;28;20485;-77
2023/07/23 06:58:20;;;;;;;5.63;4.60;;;20.50;99.90;;;;;;5077664;28;20109;-76
2023/07/23 07:00:46;;;;;;;8.52;5.43;;;20.60;99.90;;;;;;5077784;28;20063;-76
2023/07/23 07:03:12;;;;;;;8.20;5.00;;;20.70;99.90;;;;;;5077389;28;20063;-76
2023/07/23 07:05:37;;;;;;;7.65;5.68;;;20.70;99.90;;;;;;5077302;28;20052;-77
2023/07/23 07:08:03;;;;;;;7.65;4.97;;;20.60;99.90;;;;;;5075919;28;20105;-76
2023/07/23 07:10:29;;;;;;;5.60;4.45;;;20.70;99.90;;;;;;5077399;28;20013;-77
2023/07/23 07:12:54;;;;;;;8.90;4.90;;;20.90;99.90;;;;;;5077106;28;20025;-76
2023/07/23 07:15:20;;;;;;;5.82;4.57;;;20.90;99.90;;;;;;5068552;28;20084;-75
2023/07/23 07:17:45;;;;;;;8.10;4.90;;;21.00;99.90;;;;;;5069042;28;20035;-75
2023/07/23 07:20:12;;;;;;;9.90;5.05;;;21.20;99.90;;;;;;5065247;28;20027;-76
2023/07/23 07:22:37;;;;;;;8.23;5.20;;;21.40;99.90;;;;;;5075370;28;20087;-76
2023/07/23 07:25:03;;;;;;;6.45;4.90;;;21.40;99.90;;;;;;5072338;28;20094;-76
2023/07/23 07:27:29;;;;;;;7.13;5.47;;;21.60;99.90;;;;;;5063255;28;20028;-75
2023/07/23 07:29:55;;;;;;;7.53;5.43;;;21.70;99.90;;;;;;5063566;28;20009;-76
2023/07/23 07:32:20;;;;;;;6.10;4.68;;;21.80;99.90;;;;;;5068982;28;20032;-75
2023/07/23 07:34:46;;;;;;;8.98;4.47;;;21.80;99.90;;;;;;5062945;28;20025;-76
2023/07/23 07:37:11;;;;;;;6.90;4.85;;;21.90;99.90;;;;;;5069174;28;20036;-75
2023/07/23 07:39:37;;;;;;;6.13;4.68;;;22.10;99.90;;;;;;5076885;28;20035;-76
2023/07/23 07:42:03;;;;;;;11.23;4.80;;;22.30;99.90;;;;;;5074900;28;20142;-76
2023/07/23 07:44:29;;;;;;;5.22;4.13;;;22.30;99.90;;;;;;5076741;28;20046;-74
2023/07/23 07:46:54;;;;;;;10.40;4.60;;;22.30;99.90;;;;;;5064432;28;20028;-74
2023/07/23 07:49:20;;;;;;;6.85;4.30;;;22.30;99.90;;;;;;5071396;28;20121;-75
2023/07/23 07:51:47;;;;;;;5.85;4.47;;;22.50;99.90;;;;;;5084903;28;20058;-75
2023/07/23 07:54:13;;;;;;;7.57;4.70;;;22.70;99.90;;;;;;5056323;28;20041;-76
2023/07/23 07:56:39;;;;;;;5.65;4.18;;;22.80;99.90;;;;;;5067794;28;20049;-75
2023/07/23 07:59:06;;;;;;;10.80;4.88;;;22.90;99.90;;;;;;5075826;28;20035;-75
2023/07/23 08:01:32;;;;;;;11.05;4.65;;;23.20;99.90;;;;;;5085080;28;20028;-76
2023/07/23 08:03:58;;;;;;;5.70;4.57;;;23.30;99.90;;;;;;5051466;28;20514;-75
2023/07/23 08:06:25;;;;;;;7.90;5.25;;;23.40;99.90;;;;;;5070930;28;20025;-75
2023/07/23 08:08:53;;;;;;;5.50;4.40;;;23.50;99.90;;;;;;5086103;28;20043;-76
2023/07/23 08:11:20;;;;;;;7.95;4.65;;;23.50;99.90;;;;;;5079646;28;20039;-73
2023/07/23 08:13:46;;;;;;;6.43;4.90;;;23.60;99.90;;;;;;5062785;28;20541;-72
2023/07/23 08:16:16;;;;;;;6.10;4.75;;;23.70;99.90;;;;;;5062497;28;20029;-71
2023/07/23 08:18:44;;;;;;;7.68;4.57;;;23.80;99.90;;;;;;5075158;28;20048;-73
2023/07/23 08:21:10;;;;;;;11.60;4.65;;;23.70;99.90;;;;;;5063222;28;20068;-71
2023/07/23 08:23:36;;;;;;;7.97;4.82;;;23.60;99.90;;;;;;5072474;28;20032;-74
2023/07/23 08:26:04;;;;;;;11.80;5.00;;;23.60;99.90;;;;;;5083287;28;20020;-74
2023/07/23 08:28:34;;;;;;;7.07;4.90;;;23.70;99.90;;;;;;5083070;28;20481;-74
2023/07/23 08:31:00;;;;;;;8.20;4.53;;;23.60;99.90;;;;;;5088302;28;20099;-73
2023/07/23 08:33:28;;;;;;;6.00;4.15;;;23.80;99.90;;;;;;5087904;28;20050;-73
2023/07/23 08:35:55;;;;;;;7.55;4.32;;;24.00;99.90;;;;;;5096057;28;20051;-74
2023/07/23 08:38:21;;;;;;;7.65;4.38;;;24.00;99.90;;;;;;5047011;28;20013;-73
2023/07/23 08:40:55;;;;;;;7.75;4.97;;;24.10;99.90;;;;;;5069047;28;20783;-73
2023/07/23 08:43:46;;;;;;;6.93;4.15;;;24.20;99.90;;;;;;5087604;28;20092;-73
2023/07/23 08:46:30;;;;;;;6.57;4.45;;;24.40;99.90;;;;;;5080354;28;20610;-73
2023/07/23 08:48:56;;;;;;;5.72;4.60;;;24.40;99.90;;;;;;5056319;28;20719;-73
2023/07/23 08:51:37;;;;;;;5.60;4.00;;;24.50;99.90;;;;;;5058153;28;20068;-73
2023/07/23 08:54:06;;;;;;;8.65;3.83;;;24.60;99.90;;;;;;5081447;28;20035;-73
2023/07/23 08:56:33;;;;;;;6.60;4.45;;;24.40;99.90;;;;;;5079710;28;20035;-74
2023/07/23 08:59:01;;;;;;;7.25;4.07;;;24.40;99.90;;;;;;5064367;28;21723;-73
2023/07/23 09:01:32;;;;;;;6.65;3.92;;;24.60;99.90;;;;;;5078762;28;20034;-74
2023/07/23 09:03:58;;;;;;;6.43;4.57;;;24.80;99.90;;;;;;5067050;28;20028;-73
2023/07/23 09:06:25;;;;;;;8.55;4.35;;;24.90;99.90;;;;;;5074917;28;20067;-73
2023/07/23 09:08:51;;;;;;;4.82;3.97;;;24.90;99.90;;;;;;5071499;28;20448;-73
2023/07/23 09:11:17;;;;;;;6.90;4.13;;;25.10;99.90;;;;;;5086242;28;20020;-74
2023/07/23 09:13:43;;;;;;;5.88;3.97;;;25.30;99.90;;;;;;5087844;28;20088;-74
2023/07/23 09:16:09;;;;;;;4.97;3.83;;;25.30;99.90;;;;;;5055577;28;20028;-74
2023/07/23 09:18:41;;;;;;;7.53;4.38;;;25.40;99.90;;;;;;5082037;28;20031;-74
2023/07/23 09:21:07;;;;;;;5.65;3.92;;;25.60;99.90;;;;;;5055729;28;20131;-73
2023/07/23 09:23:33;;;;;;;6.57;4.03;;;25.70;99.90;;;;;;5068847;28;20476;-73
2023/07/23 09:26:00;;;;;;;6.88;5.00;;;25.90;99.90;;;;;;5071950;28;20479;-74
2023/07/23 09:28:26;;;;;;;6.18;3.95;;;26.00;99.90;;;;;;5086242;28;20019;-73
2023/07/23 09:30:58;;;;;;;5.70;4.80;;;26.20;99.90;;;;;;5081794;28;20025;-74
2023/07/23 09:33:35;;;;;;;5.38;3.65;;;26.30;99.90;;;;;;5066166;28;20036;-73
2023/07/23 09:36:02;;;;;;;5.50;3.85;;;26.40;99.90;;;;;;5074492;28;20488;-72
2023/07/23 09:38:29;;;;;;;5.45;3.70;;;26.40;99.90;;;;;;5042812;28;20029;-75
2023/07/23 09:40:55;;;;;;;6.28;3.67;;;26.40;99.90;;;;;;5044978;28;20013;-73
2023/07/23 09:43:22;;;;;;;7.43;3.70;;;26.60;99.90;;;;;;5047803;28;20839;-74
2023/07/23 09:45:48;;;;;;;9.43;4.18;;;26.60;99.90;;;;;;5068812;28;20021;-74
2023/07/23 09:48:17;;;;;;;6.60;4.30;;;26.70;99.90;;;;;;5074630;28;20430;-73
2023/07/23 09:50:49;;;;;;;8.20;3.80;;;26.80;99.90;;;;;;5076841;28;20405;-72
2023/07/23 09:53:15;;;;;;;6.00;3.88;;;26.90;99.90;;;;;;5074752;28;20016;-73
2023/07/23 09:55:42;;;;;;;5.07;4.00;;;26.90;99.90;;;;;;5069413;28;20090;-74
2023/07/23 09:58:10;;;;;;;5.13;3.80;;;26.90;99.90;;;;;;5074213;28;20056;-74
2023/07/23 10:00:36;;;;;;;6.90;4.22;;;27.00;99.90;;;;;;5070777;28;20397;-73
2023/07/23 10:03:04;;;;;;;5.65;4.05;;;27.20;99.90;;;;;;5067856;28;20111;-73
2023/07/23 10:05:31;;;;;;;4.53;3.63;;;27.20;99.90;;;;;;5071101;28;20020;-73
2023/07/23 10:08:00;;;;;;;7.05;4.05;;;27.30;99.90;;;;;;5078563;28;20016;-74
2023/07/23 10:10:27;;;;;;;5.90;4.30;;;27.40;99.90;;;;;;5078463;28;20072;-74
2023/07/23 10:12:52;;;;;;;8.73;4.25;;;27.40;99.90;;;;;;5078223;28;20480;-73
2023/07/23 10:15:20;;;;;;;5.22;3.88;;;27.60;99.90;;;;;;5078480;28;20456;-73
2023/07/23 10:17:51;;;;;;;6.80;3.83;;;27.50;99.90;;;;;;5078453;28;20024;-74
2023/07/23 10:20:18;;;;;;;4.85;3.75;;;27.60;99.90;;;;;;5078387;28;20044;-74
2023/07/23 10:22:48;;;;;;;5.03;3.55;;;27.60;99.90;;;;;;5072369;28;20056;-74
2023/07/23 10:25:31;;;;;;;5.77;4.00;;;27.70;99.90;;;;;;5072971;28;20103;-76
2023/07/23 10:28:01;;;;;;;5.53;3.92;;;27.90;99.90;;;;;;5078116;28;20024;-73
2023/07/23 10:30:29;;;;;;;5.70;3.70;;;27.90;99.90;;;;;;5066809;28;20511;-75
2023/07/23 10:33:09;;;;;;;7.65;4.20;;;28.00;99.90;;;;;;5062256;28;20029;-75
2023/07/23 10:35:58;;;;;;;5.03;3.65;;;28.20;99.90;;;;;;5060343;28;20025;-74
2023/07/23 10:38:34;;;;;;;6.18;3.80;;;28.20;99.90;;;;;;5064734;28;20088;-74
2023/07/23 10:41:01;;;;;;;5.57;3.65;;;28.30;99.90;;;;;;5059129;28;20124;-73
2023/07/23 10:43:38;;;;;;;4.97;3.17;;;28.40;99.90;;;;;;5064466;28;20024;-74
2023/07/23 10:46:06;;;;;;;5.18;3.33;;;28.50;99.90;;;;;;5061146;28;20029;-73
2023/07/23 10:48:42;;;;;;;5.70;3.80;;;28.60;99.90;;;;;;5070530;28;20074;-73
2023/07/23 10:51:13;;;;;;;7.00;4.07;;;28.80;99.70;;;;;;5072703;28;20020;-74
2023/07/23 10:53:41;;;;;;;6.20;3.63;;;29.00;99.80;;;;;;5076365;28;20033;-74
2023/07/23 10:56:23;;;;;;;5.70;4.22;;;28.90;98.30;;;;;;5077573;28;20396;-74
2023/07/23 10:58:49;;;;;;;5.10;3.60;;;28.90;98.90;;;;;;5068078;28;20020;-75
2023/07/23 11:01:21;;;;;;;6.28;3.63;;;28.90;98.30;;;;;;5078026;28;20058;-74
2023/07/23 11:03:46;;;;;;;6.32;3.85;;;29.10;98.80;;;;;;5077995;28;20424;-73
2023/07/23 11:06:32;;;;;;;8.45;3.63;;;29.10;98.30;;;;;;5077765;28;20155;-75
2023/07/23 11:09:07;;;;;;;5.18;3.88;;;29.20;97.30;;;;;;5071859;28;20455;-75
2023/07/23 11:11:38;;;;;;;5.93;3.80;;;29.30;97.50;;;;;;5075682;28;20036;-74
2023/07/23 11:14:25;;;;;;;4.53;3.30;;;29.30;97.00;;;;;;5076050;28;20025;-73
2023/07/23 11:16:53;;;;;;;5.95;3.53;;;29.40;97.50;;;;;;5070086;28;20054;-75
2023/07/23 11:19:20;;;;;;;5.78;3.30;;;29.60;97.50;;;;;;5075684;28;20021;-73
2023/07/23 11:21:46;;;;;;;5.97;3.20;;;29.60;96.80;;;;;;5073613;28;20048;-75
2023/07/23 11:24:12;;;;;;;5.50;3.55;;;29.80;95.90;;;;;;5077007;28;20092;-73
2023/07/23 11:26:39;;;;;;;4.78;3.30;;;29.80;96.50;;;;;;5076887;28;20052;-74
2023/07/23 11:29:05;;;;;;;6.90;3.33;;;29.80;95.50;;;;;;5076974;28;20021;-73
2023/07/23 11:31:31;;;;;;;5.55;3.15;;;29.80;96.40;;;;;;5077185;28;20033;-74
2023/07/23 11:33:58;;;;;;;5.30;3.53;;;30.00;95.70;;;;;;5075353;28;20513;-73
2023/07/23 11:36:24;;;;;;;4.70;3.00;;;30.10;95.50;;;;;;5076910;28;20108;-73
2023/07/23 11:38:54;;;;;;;4.72;3.30;;;30.20;95.00;;;;;;5076918;28;20044;-73
2023/07/23 11:41:26;;;;;;;6.30;3.95;;;30.20;95.90;;;;;;5075157;28;20016;-72
2023/07/23 11:43:51;;;;;;;5.57;3.60;;;30.20;95.00;;;;;;5073922;28;20036;-73
2023/07/23 11:46:18;;;;;;;7.28;3.72;;;30.20;95.20;;;;;;5071309;28;20028;-72
2023/07/23 11:48:44;;;;;;;8.02;3.45;;;30.30;95.10;;;;;;5076686;28;20027;-74
2023/07/23 11:51:10;;;;;;;5.88;4.03;;;30.40;94.40;;;;;;5075642;28;20029;-74
2023/07/23 11:53:37;;;;;;;4.93;3.28;;;30.40;93.20;;;;;;5076776;28;20031;-73
2023/07/23 11:56:13;;;;;;;5.65;3.38;;;30.50;93.30;;;;;;5076310;28;20051;-74
2023/07/23 11:58:39;;;;;;;6.50;3.45;;;30.60;93.30;;;;;;5076530;28;20013;-74
2023/07/23 12:01:07;;;;;;;4.72;3.35;;;30.80;94.00;;;;;;5076252;28;20033;-75
2023/07/23 12:03:39;;;;;;;8.02;3.90;;;30.80;92.30;;;;;;5075262;28;20104;-73
2023/07/23 12:06:05;;;;;;;5.00;3.50;;;30.90;93.50;;;;;;5076345;28;20025;-72
2023/07/23 12:08:32;;;;;;;4.95;3.15;;;30.90;92.60;;;;;;5076433;28;20024;-72
2023/07/23 12:10:57;;;;;;;7.72;3.80;;;31.00;93.60;;;;;;5074632;28;20025;-73
2023/07/23 12:13:27;;;;;;;5.20;3.30;;;31.00;92.30;;;;;;5076469;28;20039;-74
2023/07/23 12:15:57;;;;;;;5.97;2.87;;;31.10;92.20;;;;;;5076034;28;20115;-72
2023/07/23 12:18:24;;;;;;;8.70;3.60;;;31.10;92.50;;;;;;5076132;28;20028;-72
2023/07/23 12:20:57;;;;;;;5.50;3.70;;;31.10;92.40;;;;;;5075607;28;20017;-73
2023/07/23 12:23:22;;;;;;;10.25;3.80;;;31.10;91.80;;;;;;5076108;28;20059;-74
2023/07/23 12:25:48;;;;;;;9.55;3.35;;;31.10;91.20;;;;;;5075563;28;20021;-73
2023/07/23 12:28:14;;;;;;;6.28;3.97;;;31.30;92.20;;;;;;5075748;28;20068;-73
2023/07/23 12:30:39;;;;;;;4.38;3.00;;;31.40;91.30;;;;;;5075769;28;20480;-73
2023/07/23 12:33:05;;;;;;;5.25;3.50;;;31.40;92.10;;;;;;5075887;28;20396;-72
2023/07/23 12:35:31;;;;;;;11.10;6.90;;;31.40;91.50;;;;;;5075677;28;20024;-73
2023/07/23 12:37:56;;;;;;;16.20;10.52;;;31.50;92.10;;;;;;5075790;28;20103;-73
2023/07/23 12:40:22;;;;;;;60.00;34.55;;;31.60;91.20;;;;;;5075500;28;20035;-74
2023/07/23 12:42:48;;;;;;;12.95;7.75;;;31.80;92.30;;;;;;5075546;28;20040;-74
2023/07/23 12:45:13;;;;;;;9.55;4.85;;;31.60;92.10;;;;;;5075530;28;20023;-74